createdAt,value
2019-02-17T00:00:44.300Z,91.82
2019-02-17T00:03:14.987Z,91.60
2019-02-17T00:05:45.809Z,91.67
2019-02-17T00:08:16.390Z,91.88
2019-02-17T00:10:47.008Z,92.12
2019-02-17T00:13:17.254Z,92.57
2019-02-17T00:15:48.274Z,91.63
2019-02-17T00:18:17.546Z,91.54
2019-02-17T00:20:46.645Z,92.18
2019-02-17T00:23:15.744Z,92.47
2019-02-17T00:25:44.828Z,92.29
2019-02-17T00:28:13.904Z,92.48
2019-02-17T00:30:43.004Z,92.24
2019-02-17T00:33:12.092Z,92.33
2019-02-17T00:35:41.208Z,91.85
2019-02-17T00:38:10.297Z,91.63
2019-02-17T00:40:39.394Z,91.92
2019-02-17T00:43:08.499Z,91.97
2019-02-17T00:45:37.603Z,91.96
2019-02-17T00:48:06.689Z,92.47
2019-02-17T00:50:35.796Z,93.13
2019-02-17T00:53:04.885Z,92.40
2019-02-17T00:55:33.992Z,91.98
2019-02-17T00:58:03.084Z,92.16
2019-02-17T01:00:32.190Z,92.57
2019-02-17T01:03:01.369Z,92.34
2019-02-17T01:05:30.465Z,92.02
2019-02-17T01:07:59.547Z,91.80
2019-02-17T01:10:28.645Z,91.79
2019-02-17T01:12:57.729Z,91.70
2019-02-17T01:15:26.830Z,91.82
2019-02-17T01:17:55.921Z,92.32
2019-02-17T01:20:25.019Z,92.95
2019-02-17T01:22:54.111Z,93.27
2019-02-17T01:25:23.212Z,93.34
2019-02-17T01:27:52.304Z,92.30
2019-02-17T01:30:21.387Z,92.99
2019-02-17T01:32:50.496Z,93.04
2019-02-17T01:35:19.580Z,93.15
2019-02-17T01:37:48.689Z,92.67
2019-02-17T01:40:17.771Z,93.03
2019-02-17T01:42:46.909Z,92.58
2019-02-17T01:45:15.986Z,92.56
2019-02-17T01:47:45.087Z,93.47
2019-02-17T01:50:14.182Z,93.71
2019-02-17T01:52:43.304Z,93.67
2019-02-17T01:55:12.387Z,94.54
2019-02-17T01:57:41.497Z,93.91
2019-02-17T02:00:12.228Z,93.83
2019-02-17T02:02:41.323Z,93.48
2019-02-17T02:05:10.403Z,93.75
2019-02-17T02:07:39.516Z,93.63
2019-02-17T02:10:08.917Z,93.50
2019-02-17T02:12:38.023Z,93.93
2019-02-17T02:15:07.627Z,93.69
2019-02-17T02:17:36.726Z,94.16
2019-02-17T02:20:06.887Z,93.56
2019-02-17T02:22:35.976Z,93.61
2019-02-17T02:25:05.467Z,93.61
2019-02-17T02:27:34.547Z,93.63
2019-02-17T02:30:03.655Z,93.96
2019-02-17T02:32:32.746Z,93.71
2019-02-17T02:35:01.854Z,93.95
2019-02-17T02:37:30.936Z,94.07
2019-02-17T02:40:00.096Z,93.60
2019-02-17T02:42:29.239Z,93.87
2019-02-17T02:44:58.348Z,93.77
2019-02-17T02:47:27.436Z,94.05
2019-02-17T02:49:56.552Z,93.32
2019-02-17T02:52:25.636Z,93.88
2019-02-17T02:54:54.745Z,93.36
2019-02-17T02:57:24.098Z,93.26
2019-02-17T02:59:53.213Z,92.58
2019-02-17T03:02:22.295Z,93.64
2019-02-17T03:04:51.408Z,94.05
2019-02-17T03:07:21.896Z,94.75
2019-02-17T03:09:51.008Z,95.21
2019-02-17T03:12:20.095Z,94.83
2019-02-17T03:14:49.195Z,95.07
2019-02-17T03:17:18.276Z,95.16
2019-02-17T03:19:47.381Z,94.00
2019-02-17T03:22:16.462Z,94.06
2019-02-17T03:24:45.543Z,94.01
2019-02-17T03:27:14.648Z,94.25
2019-02-17T03:29:43.731Z,94.44
2019-02-17T03:32:12.839Z,94.09
2019-02-17T03:34:41.913Z,93.91
2019-02-17T03:37:11.025Z,93.88
2019-02-17T03:39:40.183Z,93.87
2019-02-17T03:42:09.309Z,93.54
2019-02-17T03:44:38.412Z,93.56
2019-02-17T03:47:07.512Z,93.55
2019-02-17T03:49:36.619Z,93.58
2019-02-17T03:52:05.731Z,93.73
2019-02-17T03:54:34.803Z,93.50
2019-02-17T03:57:03.903Z,92.87
2019-02-17T03:59:33.017Z,92.19
2019-02-17T04:02:02.109Z,93.29
2019-02-17T04:04:31.198Z,93.09
2019-02-17T04:07:00.303Z,93.23
2019-02-17T04:09:29.388Z,93.26
2019-02-17T04:11:58.497Z,93.09
2019-02-17T04:14:27.580Z,92.15
2019-02-17T04:16:56.687Z,92.78
2019-02-17T04:19:25.762Z,93.57
2019-02-17T04:21:54.869Z,93.75
2019-02-17T04:24:23.948Z,93.28
2019-02-17T04:26:53.037Z,93.05
2019-02-17T04:29:22.137Z,92.35
2019-02-17T04:31:51.507Z,92.49
2019-02-17T04:34:20.585Z,92.09
2019-02-17T04:36:49.678Z,92.07
2019-02-17T04:39:18.791Z,91.95
2019-02-17T04:41:47.867Z,91.36
2019-02-17T04:44:16.989Z,91.82
2019-02-17T04:46:46.083Z,91.37
2019-02-17T04:49:15.187Z,91.06
2019-02-17T04:51:44.267Z,91.05
2019-02-17T04:54:13.369Z,90.71
2019-02-17T04:56:42.443Z,91.06
2019-02-17T04:59:11.550Z,91.41
2019-02-17T05:01:40.640Z,91.58
2019-02-17T05:04:09.745Z,92.09
2019-02-17T05:06:40.749Z,93.13
2019-02-17T05:09:09.638Z,93.11
2019-02-17T05:11:38.722Z,92.69
2019-02-17T05:14:07.823Z,91.59
2019-02-17T05:16:36.904Z,91.53
2019-02-17T05:19:06.008Z,91.58
2019-02-17T05:21:35.092Z,91.25
2019-02-17T05:24:04.197Z,91.91
2019-02-17T05:26:33.274Z,91.88
2019-02-17T05:29:02.374Z,91.29
2019-02-17T05:31:31.458Z,91.31
2019-02-17T05:34:00.558Z,91.11
2019-02-17T05:36:29.648Z,90.91
2019-02-17T05:38:58.739Z,90.81
2019-02-17T05:41:27.838Z,90.87
2019-02-17T05:43:56.948Z,90.86
2019-02-17T05:46:26.059Z,90.18
2019-02-17T05:48:55.214Z,90.67
2019-02-17T05:51:24.330Z,90.10
2019-02-17T05:53:53.420Z,89.77
2019-02-17T05:56:22.531Z,88.75
2019-02-17T05:58:51.615Z,88.85
2019-02-17T06:01:20.715Z,89.27
2019-02-17T06:03:49.796Z,89.22
2019-02-17T06:06:18.904Z,89.39
2019-02-17T06:08:47.982Z,90.06
2019-02-17T06:11:17.087Z,90.14
2019-02-17T06:13:46.174Z,90.11
2019-02-17T06:16:15.281Z,90.44
2019-02-17T06:18:44.354Z,90.81
2019-02-17T06:21:13.456Z,90.26
2019-02-17T06:23:42.535Z,90.20
2019-02-17T06:26:11.644Z,90.22
2019-02-17T06:28:40.731Z,90.29
2019-02-17T06:31:14.580Z,89.61
2019-02-17T06:33:40.630Z,89.51
2019-02-17T06:36:09.730Z,89.45
2019-02-17T06:38:38.879Z,89.62
2019-02-17T06:41:07.953Z,89.84
2019-02-17T06:43:37.060Z,90.77
2019-02-17T06:46:06.342Z,90.31
2019-02-17T06:48:35.418Z,90.22
2019-02-17T06:51:04.528Z,90.25
2019-02-17T06:53:33.607Z,89.37
2019-02-17T06:56:18.134Z,88.48
2019-02-17T06:58:47.221Z,87.83
2019-02-17T07:01:24.390Z,87.85
2019-02-17T07:03:47.134Z,87.31
2019-02-17T07:06:24.377Z,85.20
2019-02-17T07:08:53.442Z,77.11
2019-02-17T07:11:23.450Z,69.39
2019-02-17T07:13:52.602Z,66.06
2019-02-17T07:16:22.925Z,62.91
2019-02-17T07:18:52.007Z,57.96
2019-02-17T07:21:21.137Z,55.05
2019-02-17T07:23:50.216Z,53.63
2019-02-17T07:26:19.320Z,54.44
2019-02-17T07:28:48.465Z,54.39
2019-02-17T07:31:17.581Z,55.33
2019-02-17T07:33:46.667Z,55.65
2019-02-17T07:36:15.773Z,55.92
2019-02-17T07:38:44.855Z,57.46
2019-02-17T07:41:13.962Z,56.17
2019-02-17T07:43:43.066Z,58.74
2019-02-17T07:46:12.171Z,56.69
2019-02-17T07:48:41.274Z,55.44
2019-02-17T07:51:10.384Z,55.76
2019-02-17T07:53:39.465Z,56.89
2019-02-17T07:56:08.556Z,55.45
2019-02-17T07:58:37.653Z,55.42
2019-02-17T08:01:07.407Z,53.39
2019-02-17T08:03:36.539Z,55.11
2019-02-17T08:06:05.628Z,53.33
2019-02-17T08:08:34.738Z,51.87
2019-02-17T08:11:04.456Z,52.38
2019-02-17T08:13:33.705Z,51.08
2019-02-17T08:16:02.854Z,49.66
2019-02-17T08:18:31.967Z,49.06
2019-02-17T08:21:01.057Z,47.58
2019-02-17T08:23:30.161Z,46.86
2019-02-17T08:25:59.243Z,45.76
2019-02-17T08:28:28.353Z,46.10
2019-02-17T08:30:57.436Z,45.73
2019-02-17T08:33:26.543Z,44.31
2019-02-17T08:35:55.640Z,43.09
2019-02-17T08:38:24.738Z,42.22
2019-02-17T08:40:53.840Z,40.06
2019-02-17T08:43:22.963Z,36.01
2019-02-17T08:45:52.060Z,34.02
2019-02-17T08:48:21.179Z,32.24
2019-02-17T08:50:50.277Z,32.73
2019-02-17T08:53:19.383Z,30.00
2019-02-17T08:55:48.471Z,31.89
2019-02-17T08:58:17.584Z,32.85
2019-02-17T09:00:46.677Z,31.18
2019-02-17T09:03:15.785Z,30.56
2019-02-17T09:05:44.877Z,28.90
2019-02-17T09:08:13.990Z,29.33
2019-02-17T09:10:43.075Z,31.04
2019-02-17T09:13:12.185Z,31.84
2019-02-17T09:15:41.274Z,33.37
2019-02-17T09:18:10.519Z,30.96
2019-02-17T09:20:39.819Z,28.07
2019-02-17T09:23:08.968Z,27.92
2019-02-17T09:25:38.060Z,28.93
2019-02-17T09:28:07.168Z,27.92
2019-02-17T09:30:36.259Z,30.77
2019-02-17T09:33:05.368Z,28.09
2019-02-17T09:35:34.458Z,27.51
2019-02-17T09:38:03.768Z,28.18
2019-02-17T09:40:32.865Z,28.13
2019-02-17T09:43:01.999Z,30.67
2019-02-17T09:45:31.091Z,28.55
2019-02-17T09:48:00.193Z,30.70
2019-02-17T09:50:29.281Z,26.22
2019-02-17T09:52:58.389Z,24.92
2019-02-17T09:55:27.496Z,27.76
2019-02-17T09:57:56.608Z,25.71
2019-02-17T10:00:25.700Z,29.10
2019-02-17T10:02:54.802Z,28.80
2019-02-17T10:05:23.906Z,26.91
2019-02-17T10:07:53.022Z,30.76
2019-02-17T10:10:22.136Z,30.00
2019-02-17T10:12:51.234Z,29.76
2019-02-17T10:15:20.319Z,29.97
2019-02-17T10:17:49.396Z,27.42
2019-02-17T10:20:18.510Z,27.88
2019-02-17T10:22:47.595Z,25.11
2019-02-17T10:25:16.704Z,27.41
2019-02-17T10:27:45.792Z,23.07
2019-02-17T10:30:15.238Z,25.43
2019-02-17T10:32:44.328Z,25.75
2019-02-17T10:35:13.554Z,26.38
2019-02-17T10:37:42.640Z,24.35
2019-02-17T10:40:15.213Z,24.78
2019-02-17T10:42:44.301Z,25.79
2019-02-17T10:45:13.717Z,25.98
2019-02-17T10:47:42.796Z,27.64
2019-02-17T10:50:12.330Z,23.69
2019-02-17T10:52:41.420Z,24.86
2019-02-17T10:55:10.764Z,23.41
2019-02-17T10:57:41.516Z,21.77
2019-02-17T11:00:13.043Z,19.26
2019-02-17T11:02:47.069Z,21.27
2019-02-17T11:05:13.001Z,24.20
2019-02-17T11:07:43.551Z,21.98
2019-02-17T11:10:12.893Z,20.50
2019-02-17T11:12:41.979Z,19.02
2019-02-17T11:15:12.854Z,22.25
2019-02-17T11:17:41.937Z,22.49
2019-02-17T11:20:11.047Z,23.60
2019-02-17T11:22:40.150Z,23.12
2019-02-17T11:25:09.361Z,19.41
2019-02-17T11:27:38.438Z,21.55
2019-02-17T11:30:09.760Z,18.34
2019-02-17T11:32:38.841Z,20.86
2019-02-17T11:35:08.066Z,20.93
2019-02-17T11:37:37.157Z,20.32
2019-02-17T11:40:07.837Z,22.27
2019-02-17T11:42:36.926Z,24.11
2019-02-17T11:45:07.398Z,21.66
2019-02-17T11:47:36.489Z,22.31
2019-02-17T11:50:05.937Z,23.24
2019-02-17T11:52:35.078Z,23.64
2019-02-17T11:55:04.320Z,23.18
2019-02-17T11:57:33.422Z,23.06
2019-02-17T12:00:02.529Z,20.54
2019-02-17T12:02:31.623Z,21.70
2019-02-17T12:05:00.815Z,20.52
2019-02-17T12:07:29.907Z,20.49
2019-02-17T12:09:59.019Z,18.93
2019-02-17T12:12:28.103Z,17.92
2019-02-17T12:14:57.206Z,18.30
2019-02-17T12:17:26.286Z,21.71
2019-02-17T12:19:59.346Z,20.57
2019-02-17T12:22:42.318Z,21.18
2019-02-17T12:25:25.959Z,20.12
2019-02-17T12:28:00.417Z,19.70
2019-02-17T12:30:29.517Z,21.20
2019-02-17T12:32:58.597Z,19.27
2019-02-17T12:35:27.702Z,17.48
2019-02-17T12:37:56.787Z,17.68
2019-02-17T12:40:25.900Z,18.24
2019-02-17T12:42:55.042Z,17.69
2019-02-17T12:45:24.136Z,19.00
2019-02-17T12:47:57.877Z,20.32
2019-02-17T12:50:24.052Z,22.12
2019-02-17T12:52:53.148Z,19.30
2019-02-17T12:55:22.246Z,18.51
2019-02-17T12:57:51.337Z,17.14
2019-02-17T13:00:20.448Z,19.16
2019-02-17T13:02:49.529Z,17.13
2019-02-17T13:05:18.631Z,18.67
2019-02-17T13:07:47.728Z,20.39
2019-02-17T13:10:16.830Z,20.18
2019-02-17T13:12:46.065Z,20.71
2019-02-17T13:15:15.243Z,23.61
2019-02-17T13:17:44.328Z,22.11
2019-02-17T13:20:13.450Z,22.40
2019-02-17T13:22:42.533Z,22.04
2019-02-17T13:25:11.967Z,23.49
2019-02-17T13:27:41.082Z,23.60
2019-02-17T13:30:13.533Z,23.39
2019-02-17T13:32:42.644Z,24.10
2019-02-17T13:35:11.742Z,26.06
2019-02-17T13:37:40.847Z,25.65
2019-02-17T13:40:10.804Z,27.35
2019-02-17T13:42:39.911Z,26.99
2019-02-17T13:45:10.632Z,25.65
2019-02-17T13:47:39.744Z,23.90
2019-02-17T13:50:10.598Z,24.85
2019-02-17T13:52:39.697Z,24.03
2019-02-17T13:55:09.146Z,22.79
2019-02-17T13:57:38.268Z,22.29
2019-02-17T14:00:10.342Z,20.74
2019-02-17T14:02:39.456Z,22.00
2019-02-17T14:05:08.677Z,22.66
2019-02-17T14:07:37.777Z,20.75
2019-02-17T14:10:08.039Z,22.34
2019-02-17T14:12:37.147Z,23.09
2019-02-17T14:15:08.042Z,24.37
2019-02-17T14:17:37.143Z,25.26
2019-02-17T14:20:07.556Z,24.55
2019-02-17T14:22:36.704Z,23.88
2019-02-17T14:25:05.840Z,21.81
2019-02-17T14:27:34.958Z,22.68
2019-02-17T14:30:04.429Z,23.00
2019-02-17T14:32:33.535Z,22.85
2019-02-17T14:35:02.613Z,21.49
2019-02-17T14:37:31.726Z,20.00
2019-02-17T14:40:00.852Z,22.19
2019-02-17T14:42:29.915Z,23.86
2019-02-17T14:44:59.053Z,22.94
2019-02-17T14:47:28.156Z,24.68
2019-02-17T14:49:57.265Z,23.51
2019-02-17T14:52:26.350Z,21.54
2019-02-17T14:54:55.459Z,21.70
2019-02-17T14:57:24.539Z,21.65
2019-02-17T14:59:53.648Z,23.08
2019-02-17T15:02:22.733Z,22.58
2019-02-17T15:04:51.843Z,22.20
2019-02-17T15:07:20.939Z,23.88
2019-02-17T15:09:50.045Z,24.43
2019-02-17T15:12:19.140Z,24.03
2019-02-17T15:14:48.244Z,23.64
2019-02-17T15:17:17.344Z,22.61
2019-02-17T15:19:46.456Z,22.72
2019-02-17T15:22:15.532Z,24.05
2019-02-17T15:24:44.637Z,24.92
2019-02-17T15:27:13.718Z,23.84
2019-02-17T15:29:42.825Z,26.22
2019-02-17T15:32:11.928Z,24.20
2019-02-17T15:34:41.140Z,24.71
2019-02-17T15:37:10.229Z,26.97
2019-02-17T15:39:39.334Z,26.04
2019-02-17T15:42:08.413Z,26.88
2019-02-17T15:44:37.596Z,25.29
2019-02-17T15:47:06.700Z,25.89
2019-02-17T15:49:35.806Z,26.44
2019-02-17T15:52:04.886Z,27.69
2019-02-17T15:54:33.982Z,27.21
2019-02-17T15:57:03.072Z,28.75
2019-02-17T15:59:32.380Z,29.38
2019-02-17T16:02:01.482Z,29.07
2019-02-17T16:04:30.579Z,30.00
2019-02-17T16:06:59.660Z,31.90
2019-02-17T16:09:28.777Z,32.69
2019-02-17T16:11:57.864Z,33.86
2019-02-17T16:14:26.965Z,34.10
2019-02-17T16:16:56.100Z,34.64
2019-02-17T16:19:25.207Z,35.79
2019-02-17T16:21:54.306Z,34.82
2019-02-17T16:24:23.410Z,36.10
2019-02-17T16:26:52.509Z,36.70
2019-02-17T16:29:21.619Z,37.84
2019-02-17T16:31:50.702Z,39.53
2019-02-17T16:34:19.815Z,39.49
2019-02-17T16:36:48.911Z,40.11
2019-02-17T16:39:18.029Z,43.29
2019-02-17T16:41:47.119Z,44.26
2019-02-17T16:44:16.255Z,44.31
2019-02-17T16:46:45.349Z,45.05
2019-02-17T16:49:14.463Z,45.31
2019-02-17T16:51:43.563Z,45.53
2019-02-17T16:54:12.665Z,46.59
2019-02-17T16:56:41.748Z,47.90
2019-02-17T16:59:10.849Z,48.02
2019-02-17T17:01:39.927Z,48.87
2019-02-17T17:04:09.039Z,49.73
2019-02-17T17:06:38.115Z,50.95
2019-02-17T17:09:07.743Z,51.29
2019-02-17T17:11:36.835Z,51.66
2019-02-17T17:14:08.964Z,52.97
2019-02-17T17:16:36.730Z,53.17
2019-02-17T17:19:06.353Z,53.71
2019-02-17T17:21:35.688Z,54.90
2019-02-17T17:24:04.765Z,55.28
2019-02-17T17:26:33.857Z,57.49
2019-02-17T17:29:02.961Z,56.96
2019-02-17T17:31:32.302Z,56.98
2019-02-17T17:34:01.394Z,58.39
2019-02-17T17:36:30.494Z,59.46
2019-02-17T17:38:59.583Z,59.16
2019-02-17T17:41:28.711Z,58.71
2019-02-17T17:43:57.995Z,59.11
2019-02-17T17:46:27.133Z,58.38
2019-02-17T17:48:56.230Z,56.93
2019-02-17T17:51:25.423Z,58.16
2019-02-17T17:53:54.487Z,59.87
2019-02-17T17:56:23.601Z,61.17
2019-02-17T17:58:52.677Z,59.73
2019-02-17T18:01:21.803Z,61.36
2019-02-17T18:03:50.885Z,62.12
2019-02-17T18:06:19.984Z,63.44
2019-02-17T18:08:49.061Z,63.89
2019-02-17T18:11:18.169Z,64.02
2019-02-17T18:13:47.252Z,64.03
2019-02-17T18:16:16.357Z,62.84
2019-02-17T18:18:45.447Z,62.51
2019-02-17T18:21:14.549Z,62.95
2019-02-17T18:23:43.635Z,63.71
2019-02-17T18:26:12.736Z,64.38
2019-02-17T18:28:41.821Z,65.23
2019-02-17T18:31:10.931Z,65.76
2019-02-17T18:33:40.014Z,64.97
2019-02-17T18:36:09.118Z,65.27
2019-02-17T18:38:38.225Z,64.05
2019-02-17T18:41:07.330Z,62.47
2019-02-17T18:43:36.451Z,63.75
2019-02-17T18:46:05.554Z,63.42
2019-02-17T18:48:34.635Z,61.32
2019-02-17T18:51:03.737Z,61.40
2019-02-17T18:53:32.821Z,61.86
2019-02-17T18:56:01.923Z,61.96
2019-02-17T18:58:31.001Z,62.82
2019-02-17T19:01:00.099Z,61.72
2019-02-17T19:03:29.213Z,60.06
2019-02-17T19:05:58.319Z,59.25
2019-02-17T19:08:27.406Z,57.90
2019-02-17T19:10:56.494Z,57.91
2019-02-17T19:13:25.611Z,59.23
2019-02-17T19:15:54.708Z,59.08
2019-02-17T19:18:23.838Z,58.51
2019-02-17T19:20:53.804Z,58.18
2019-02-17T19:23:22.901Z,58.55
2019-02-17T19:25:51.991Z,57.10
2019-02-17T19:28:21.107Z,55.27
2019-02-17T19:30:50.192Z,53.43
2019-02-17T19:33:19.167Z,51.01
2019-02-17T19:35:48.254Z,51.37
2019-02-17T19:38:17.353Z,49.81
2019-02-17T19:40:46.438Z,49.56
2019-02-17T19:43:15.577Z,52.87
2019-02-17T19:45:44.666Z,54.05
2019-02-17T19:48:13.766Z,54.58
2019-02-17T19:50:42.860Z,55.91
2019-02-17T19:53:11.971Z,57.21
2019-02-17T19:55:41.059Z,56.34
2019-02-17T19:58:10.164Z,56.98
2019-02-17T20:00:39.252Z,57.65
2019-02-17T20:03:36.335Z,58.08
2019-02-17T20:06:05.468Z,58.41
2019-02-17T20:08:34.794Z,59.20
2019-02-17T20:11:05.139Z,60.09
2019-02-17T20:13:34.283Z,59.63
2019-02-17T20:16:03.370Z,59.88
2019-02-17T20:18:32.479Z,60.57
2019-02-17T20:21:01.564Z,59.75
2019-02-17T20:23:30.765Z,59.90
2019-02-17T20:25:59.846Z,61.11
2019-02-17T20:28:40.632Z,61.24
2019-02-17T20:30:59.773Z,62.62
2019-02-17T20:33:28.857Z,62.86
2019-02-17T20:36:02.625Z,63.25
2019-02-17T20:38:28.763Z,63.12
2019-02-17T20:40:57.879Z,63.41
2019-02-17T20:43:26.991Z,63.16
2019-02-17T20:45:56.105Z,63.68
2019-02-17T20:48:25.189Z,64.53
2019-02-17T20:50:54.291Z,65.59
2019-02-17T20:53:23.373Z,65.96
2019-02-17T20:55:52.484Z,66.30
2019-02-17T20:58:21.565Z,66.79
2019-02-17T21:00:50.671Z,67.10
2019-02-17T21:03:19.764Z,67.57
2019-02-17T21:05:48.866Z,68.36
2019-02-17T21:08:17.950Z,67.47
2019-02-17T21:10:47.056Z,67.92
2019-02-17T21:13:16.137Z,67.49
2019-02-17T21:15:45.240Z,68.30
2019-02-17T21:18:14.318Z,68.64
2019-02-17T21:20:43.422Z,69.01
2019-02-17T21:23:12.497Z,68.91
2019-02-17T21:25:41.575Z,69.86
2019-02-17T21:28:10.681Z,70.40
2019-02-17T21:30:39.757Z,70.25
2019-02-17T21:33:08.912Z,70.24
2019-02-17T21:35:37.998Z,70.45
2019-02-17T21:38:07.098Z,71.06
2019-02-17T21:40:36.178Z,71.13
2019-02-17T21:43:05.308Z,70.63
2019-02-17T21:45:34.524Z,71.11
2019-02-17T21:48:03.640Z,71.20
2019-02-17T21:50:32.718Z,71.40
2019-02-17T21:53:01.835Z,72.12
2019-02-17T21:55:30.919Z,72.51
2019-02-17T21:58:00.031Z,72.70
2019-02-17T22:00:29.116Z,71.69
2019-02-17T22:02:58.215Z,71.90
2019-02-17T22:05:27.301Z,72.12
2019-02-17T22:07:56.401Z,71.77
2019-02-17T22:10:25.477Z,71.98
2019-02-17T22:12:54.575Z,71.75
2019-02-17T22:15:23.667Z,72.04
2019-02-17T22:17:52.769Z,72.17
2019-02-17T22:20:22.013Z,72.13
2019-02-17T22:22:51.119Z,72.34
2019-02-17T22:25:20.198Z,73.00
2019-02-17T22:27:49.367Z,72.92
2019-02-17T22:30:18.451Z,73.03
2019-02-17T22:32:47.529Z,73.12
2019-02-17T22:35:16.635Z,72.79
2019-02-17T22:37:45.718Z,73.21
2019-02-17T22:40:14.930Z,73.43
2019-02-17T22:42:44.005Z,73.60
2019-02-17T22:45:13.235Z,73.78
2019-02-17T22:47:42.419Z,73.71
2019-02-17T22:50:11.631Z,73.92
2019-02-17T22:52:40.708Z,74.12
2019-02-17T22:55:10.389Z,73.55
2019-02-17T22:57:39.576Z,72.93
2019-02-17T23:00:24.767Z,73.54
2019-02-17T23:02:53.847Z,73.40
2019-02-17T23:05:22.956Z,74.18
2019-02-17T23:07:52.036Z,73.83
2019-02-17T23:10:21.143Z,74.38
2019-02-17T23:12:50.226Z,74.36
2019-02-17T23:15:19.330Z,74.92
2019-02-17T23:17:48.415Z,74.51
2019-02-17T23:20:17.526Z,74.73
2019-02-17T23:22:46.615Z,75.39
2019-02-17T23:25:15.715Z,74.94
2019-02-17T23:27:44.790Z,75.40
2019-02-17T23:30:13.891Z,75.29
2019-02-17T23:32:42.961Z,75.20
2019-02-17T23:35:12.072Z,75.99
2019-02-17T23:37:41.152Z,75.95
2019-02-17T23:40:10.974Z,76.11
2019-02-17T23:42:40.071Z,75.69
2019-02-17T23:45:09.231Z,75.57
2019-02-17T23:47:38.306Z,76.03
2019-02-17T23:50:07.511Z,76.39
2019-02-17T23:52:36.611Z,76.30
2019-02-17T23:55:05.795Z,76.00
2019-02-17T23:57:34.902Z,76.06
